createdAt,value
2018-11-13T08:22:58.026Z,57.54
2018-11-13T08:25:47.379Z,63.48
2018-11-13T08:26:20.427Z,66.00
2018-11-13T08:27:20.385Z,68.46
2018-11-13T08:28:24.925Z,70.06
2018-11-13T08:29:41.990Z,71.23
2018-11-13T08:30:20.885Z,74.11
2018-11-13T08:31:20.895Z,76.84
2018-11-13T08:32:21.388Z,77.95
2018-11-13T08:33:24.885Z,80.25
2018-11-13T08:34:21.393Z,81.16
2018-11-13T08:35:21.400Z,81.36
2018-11-13T08:36:21.889Z,82.79
2018-11-13T08:37:21.886Z,83.42
2018-11-13T08:38:25.284Z,84.56
2018-11-13T08:39:48.891Z,85.33
2018-11-13T08:40:22.385Z,85.52
2018-11-13T08:42:53.748Z,87.20
2018-11-13T08:44:20.847Z,87.39
2018-11-13T08:44:53.224Z,87.68
2018-11-13T08:46:15.248Z,88.15
2018-11-13T08:47:15.247Z,87.68
2018-11-13T08:47:54.251Z,88.25
2018-11-13T08:48:54.260Z,88.44
2018-11-13T08:53:22.439Z,88.73
2018-11-13T08:54:07.445Z,88.15
2018-11-13T08:58:08.443Z,89.59
2018-11-13T08:59:08.539Z,89.30
2018-11-13T09:01:45.545Z,88.92
2018-11-13T09:02:43.544Z,89.78
2018-11-13T09:03:46.058Z,88.63
2018-11-13T09:04:46.045Z,89.39
2018-11-13T09:05:47.044Z,89.87
2018-11-13T09:07:05.045Z,89.06
2018-11-13T09:08:21.504Z,89.45
2018-11-13T09:10:15.866Z,90.54
2018-11-13T09:11:18.713Z,90.25
2018-11-13T09:12:36.878Z,89.97
2018-11-13T09:13:15.884Z,90.45
2018-11-13T09:14:51.378Z,90.64
2018-11-13T09:15:16.401Z,90.83
2018-11-13T09:16:16.374Z,90.35
2018-11-13T09:17:41.382Z,90.54
2018-11-13T09:18:16.874Z,90.54
2018-11-13T09:19:30.987Z,90.16
2018-11-13T09:20:16.872Z,90.54
2018-11-13T09:21:16.875Z,90.35
2018-11-13T09:22:41.899Z,90.35
2018-11-13T09:23:17.372Z,89.59
2018-11-13T09:24:18.306Z,89.20
2018-11-13T09:25:38.383Z,89.68
2018-11-13T09:26:17.893Z,89.39
2018-11-13T09:27:17.904Z,90.45
2018-11-13T09:28:21.387Z,90.54
2018-11-13T09:29:17.345Z,91.02
2018-11-13T09:31:49.901Z,90.64
2018-11-13T09:32:51.128Z,90.54
2018-11-13T09:34:14.081Z,90.39
2018-11-13T09:36:21.441Z,90.30
2018-11-13T09:37:21.462Z,90.11
2018-11-13T09:38:42.448Z,88.25
2018-11-13T09:39:46.456Z,87.10
2018-11-13T09:40:21.949Z,88.87
2018-11-13T09:41:22.882Z,90.11
2018-11-13T09:42:21.948Z,90.01
2018-11-13T09:43:28.450Z,89.87
2018-11-13T09:44:25.952Z,90.49
2018-11-13T09:45:43.462Z,90.20
2018-11-13T09:46:22.496Z,90.59
2018-11-13T09:47:22.949Z,90.20
2018-11-13T09:48:22.947Z,90.11
2018-11-13T09:49:29.892Z,89.73
2018-11-13T09:50:22.958Z,89.06
2018-11-13T09:51:22.948Z,86.67
2018-11-13T09:53:54.682Z,87.48
2018-11-13T09:54:58.687Z,87.00
2018-11-13T09:55:54.701Z,87.19
2018-11-13T09:57:09.187Z,86.90
2018-11-13T10:01:28.980Z,86.52
2018-11-13T10:01:58.748Z,84.61
2018-11-13T10:02:59.189Z,85.38
2018-11-13T10:04:20.030Z,84.99
2018-11-13T10:04:59.637Z,86.52
2018-11-13T10:07:55.231Z,86.80
2018-11-13T10:08:55.240Z,84.13
2018-11-13T10:09:34.239Z,83.75
2018-11-13T10:15:39.728Z,85.24
2018-11-13T10:16:12.064Z,85.42
2018-11-13T10:17:16.271Z,82.37
2018-11-13T10:18:14.815Z,84.85
2018-11-13T10:19:34.229Z,85.14
2018-11-13T10:20:34.255Z,85.62
2018-11-13T10:21:15.158Z,86.38
2018-11-13T10:22:16.562Z,87.24
2018-11-13T10:23:12.916Z,86.96
2018-11-13T10:24:36.698Z,86.19
2018-11-13T10:27:06.267Z,83.33
2018-11-13T10:28:09.739Z,84.38
2018-11-13T10:29:06.199Z,83.70
2018-11-13T10:30:05.786Z,84.76
2018-11-13T10:30:49.679Z,85.33
2018-11-13T10:32:06.698Z,86.38
2018-11-13T10:32:45.718Z,87.34
2018-11-13T10:33:49.705Z,87.29
2018-11-13T10:34:46.236Z,84.05
2018-11-13T10:35:46.201Z,84.14
2018-11-13T10:36:52.207Z,84.62
2018-11-13T10:39:21.440Z,85.71
2018-11-13T10:42:11.899Z,87.24
2018-11-13T10:42:49.437Z,87.05
2018-11-13T10:45:47.664Z,86.10
2018-11-13T10:46:21.175Z,85.47
2018-11-13T10:47:20.642Z,84.85
2018-11-13T10:48:44.709Z,85.66
2018-11-13T10:49:44.110Z,85.94
2018-11-13T10:50:31.765Z,85.38
2018-11-13T10:51:42.671Z,84.52
2018-11-13T10:52:21.148Z,85.66
2018-11-13T10:53:21.239Z,85.18
2018-11-13T10:55:56.658Z,86.00
2018-11-13T10:57:13.859Z,86.96
2018-11-13T10:58:14.476Z,87.15
2018-11-13T10:58:53.976Z,86.10
2018-11-13T10:59:55.415Z,86.76
2018-11-13T11:00:55.982Z,86.82
2018-11-13T11:01:57.471Z,85.77
2018-11-13T11:02:54.076Z,89.11
2018-11-13T11:03:54.483Z,88.73
2018-11-13T11:06:48.293Z,87.77
2018-11-13T11:07:49.839Z,87.87
2018-11-13T11:08:27.273Z,88.73
2018-11-13T11:09:25.476Z,88.63
2018-11-13T11:10:47.338Z,89.20
2018-11-13T11:11:26.411Z,89.68
2018-11-13T11:18:39.238Z,88.73
2018-11-13T11:19:37.678Z,87.87
2018-11-13T11:20:36.164Z,88.73
2018-11-13T11:21:59.121Z,87.77
2018-11-13T11:22:38.673Z,85.99
2018-11-13T11:23:46.759Z,83.46
2018-11-13T11:24:36.683Z,83.75
2018-11-13T11:25:36.278Z,85.09
2018-11-13T11:28:08.551Z,84.32
2018-11-13T11:29:12.034Z,84.42
2018-11-13T11:30:08.537Z,84.13
2018-11-13T11:31:09.101Z,83.46
2018-11-13T11:32:09.029Z,83.31
2018-11-13T11:33:09.038Z,82.64
2018-11-13T11:35:44.715Z,82.17
2018-11-13T11:36:46.719Z,80.00
2018-11-13T11:37:44.723Z,79.66
2018-11-13T11:38:44.419Z,80.24
2018-11-13T11:39:48.255Z,80.10
2018-11-13T11:42:37.604Z,78.84
2018-11-13T11:43:16.611Z,78.27
2018-11-13T11:44:16.663Z,78.22
2018-11-13T11:45:41.611Z,79.08
2018-11-13T11:46:19.562Z,80.38
2018-11-13T11:47:17.168Z,80.96
2018-11-13T11:48:17.124Z,76.12
2018-11-13T11:49:17.121Z,76.12
2018-11-13T11:50:42.112Z,78.76
2018-11-13T11:51:38.628Z,78.86
2018-11-13T11:53:49.163Z,76.86
2018-11-13T11:54:50.568Z,75.96
2018-11-13T11:56:13.119Z,77.08
2018-11-13T11:56:49.114Z,77.99
2018-11-13T12:00:31.967Z,77.23
2018-11-13T12:01:33.995Z,75.98
2018-11-13T12:04:22.744Z,80.58
2018-11-13T12:05:07.744Z,80.77
2018-11-13T12:06:01.744Z,79.33
2018-11-13T12:07:05.744Z,77.13
2018-11-13T12:08:23.304Z,78.95
2018-11-13T12:09:24.718Z,78.53
2018-11-13T12:13:29.023Z,80.98
2018-11-13T12:14:05.789Z,82.41
2018-11-13T12:15:05.268Z,83.46
2018-11-13T12:16:26.340Z,83.65
2018-11-13T12:18:40.655Z,82.65
2018-11-13T12:19:37.163Z,82.94
2018-11-13T12:20:58.590Z,84.32
2018-11-13T12:21:39.057Z,83.84
2018-11-13T12:23:00.051Z,82.70
2018-11-13T12:23:38.097Z,83.56
2018-11-13T12:26:12.791Z,83.75
2018-11-13T12:27:12.781Z,84.13
2018-11-13T12:28:12.784Z,84.70
2018-11-13T12:30:47.697Z,83.65
2018-11-13T12:31:44.529Z,82.70
2018-11-13T12:32:44.526Z,82.12
2018-11-13T12:34:05.104Z,82.98
2018-11-13T12:36:19.847Z,83.65
2018-11-13T12:37:16.347Z,82.31
2018-11-13T12:38:16.347Z,83.46
2018-11-13T12:39:16.859Z,84.13
2018-11-13T12:40:41.419Z,83.51
2018-11-13T12:41:16.199Z,83.23
2018-11-13T12:42:20.871Z,84.66
2018-11-13T12:43:16.848Z,85.05
2018-11-13T12:44:17.357Z,85.71
2018-11-13T12:45:17.386Z,83.80
2018-11-13T12:46:38.414Z,83.04
2018-11-13T12:47:17.347Z,83.61
2018-11-13T12:48:20.272Z,83.42
2018-11-13T12:49:17.858Z,84.66
2018-11-13T12:50:52.851Z,84.56
2018-11-13T12:51:17.202Z,83.61
2018-11-13T12:52:17.846Z,82.46
2018-11-13T12:53:28.346Z,82.37
2018-11-13T12:54:17.576Z,83.04
2018-11-13T12:55:17.671Z,83.61
2018-11-13T12:56:18.397Z,84.19
2018-11-13T12:57:18.353Z,84.28
2018-11-13T12:58:32.848Z,85.24
2018-11-13T12:59:43.352Z,84.66
2018-11-13T13:00:21.175Z,84.19
2018-11-13T13:01:19.350Z,80.27
2018-11-13T13:02:19.410Z,79.50
2018-11-13T13:03:46.351Z,80.46
2018-11-13T13:04:23.346Z,78.45
2018-11-13T13:05:25.348Z,76.73
2018-11-13T13:06:19.850Z,78.16
2018-11-13T13:07:19.844Z,78.01
2018-11-13T13:08:19.849Z,77.28
2018-11-13T13:09:22.347Z,78.24
2018-11-13T13:10:22.644Z,78.72
2018-11-13T13:11:20.809Z,79.29
2018-11-13T13:14:12.788Z,79.06
2018-11-13T13:14:51.817Z,78.34
2018-11-13T13:15:55.788Z,79.44
2018-11-13T13:16:51.382Z,75.43
2018-11-13T13:17:52.293Z,74.38
2018-11-13T13:18:51.648Z,76.29
2018-11-13T13:19:52.289Z,79.06
2018-11-13T13:21:17.295Z,80.50
2018-11-13T13:21:52.792Z,79.22
2018-11-13T13:22:52.801Z,79.60
2018-11-13T13:23:52.790Z,78.45
2018-11-13T13:26:48.525Z,80.17
2018-11-13T13:27:24.529Z,80.65
2018-11-13T13:28:24.530Z,78.74
2018-11-13T13:31:17.265Z,80.07
2018-11-13T13:32:00.417Z,78.07
2018-11-13T13:32:56.270Z,79.98
2018-11-13T13:33:56.787Z,80.84
2018-11-13T13:34:56.780Z,81.03
2018-11-13T13:35:56.790Z,81.51
2018-11-13T13:36:56.279Z,82.94
2018-11-13T13:41:03.229Z,83.33
2018-11-13T13:42:09.234Z,81.89
2018-11-13T13:44:58.997Z,82.75
2018-11-13T13:45:59.006Z,79.75
2018-11-13T13:46:58.998Z,79.02
2018-11-13T13:47:58.578Z,79.98
2018-11-13T13:48:44.501Z,81.89
2018-11-13T13:49:59.500Z,82.71
2018-11-13T13:50:39.937Z,80.70
2018-11-13T13:51:38.504Z,81.76
2018-11-13T13:54:13.772Z,80.80
2018-11-13T13:56:41.832Z,81.09
2018-11-13T13:57:41.845Z,82.23
2018-11-13T13:58:41.849Z,81.95
2018-11-13T13:59:45.408Z,80.90
2018-11-13T14:00:42.400Z,80.04
2018-11-13T14:01:42.339Z,78.70
2018-11-13T14:03:03.343Z,78.99
2018-11-13T14:03:53.282Z,79.65
2018-11-13T14:05:07.844Z,80.13
2018-11-13T14:06:03.870Z,80.55
2018-11-13T14:06:42.844Z,80.90
2018-11-13T14:09:35.578Z,78.51
2018-11-13T14:10:18.090Z,78.89
2018-11-13T14:11:15.083Z,79.94
2018-11-13T14:12:15.106Z,80.22
2018-11-13T14:13:15.083Z,76.79
2018-11-13T14:14:15.081Z,79.08
2018-11-13T14:15:39.673Z,79.88
2018-11-13T14:16:17.589Z,80.99
2018-11-13T14:17:15.581Z,80.32
2018-11-13T14:18:15.057Z,80.41
2018-11-13T14:19:16.081Z,82.14
2018-11-13T14:20:18.088Z,80.41
2018-11-13T14:23:04.827Z,80.90
2018-11-13T14:24:11.883Z,81.18
2018-11-13T14:24:50.833Z,81.56
2018-11-13T14:25:50.427Z,81.95
2018-11-13T14:27:01.330Z,81.27
2018-11-13T14:28:12.333Z,77.84
2018-11-13T14:28:51.393Z,81.03
2018-11-13T14:29:51.833Z,80.99
2018-11-13T14:34:13.872Z,79.08
2018-11-13T14:34:59.849Z,78.22
2018-11-13T14:35:59.318Z,80.41
2018-11-13T14:37:00.349Z,79.31
2018-11-13T14:38:09.350Z,80.17
2018-11-13T14:39:00.349Z,80.22
2018-11-13T14:40:00.349Z,80.80
2018-11-13T14:41:02.303Z,80.99
2018-11-13T14:43:35.305Z,80.99
2018-11-13T14:44:47.638Z,81.27
2018-11-13T14:45:32.172Z,79.85
2018-11-13T14:46:53.746Z,80.22
2018-11-13T14:47:52.869Z,80.90
2018-11-13T14:48:34.131Z,80.90
2018-11-13T14:49:56.266Z,81.85
2018-11-13T14:52:25.422Z,82.04
2018-11-13T14:53:20.424Z,83.18
2018-11-13T14:54:25.385Z,83.51
2018-11-13T14:55:08.883Z,83.00
2018-11-13T14:56:31.891Z,80.80
2018-11-13T14:58:57.245Z,79.69
2018-11-13T15:01:31.931Z,79.12
2018-11-13T15:02:07.759Z,80.84
2018-11-13T15:03:07.251Z,81.99
2018-11-13T15:04:22.245Z,80.84
2018-11-13T15:05:08.245Z,81.03
2018-11-13T15:06:08.245Z,80.46
2018-11-13T15:08:44.990Z,81.41
2018-11-13T15:09:46.989Z,81.70
2018-11-13T15:10:44.054Z,80.74
2018-11-13T15:12:04.638Z,81.79
2018-11-13T15:12:50.496Z,81.03
2018-11-13T15:13:43.891Z,79.88
2018-11-13T15:15:05.561Z,78.36
2018-11-13T15:17:16.666Z,77.17
2018-11-13T15:18:19.675Z,79.85
2018-11-13T15:19:16.151Z,79.46
2018-11-13T15:20:17.177Z,79.85
2018-11-13T15:21:17.174Z,79.27
2018-11-13T15:22:31.209Z,80.90
2018-11-13T15:23:42.176Z,80.22
2018-11-13T15:24:16.826Z,79.27
2018-11-13T15:25:17.675Z,79.85
2018-11-13T15:26:17.679Z,79.17
2018-11-13T15:27:18.614Z,79.85
2018-11-13T15:28:32.174Z,80.70
2018-11-13T15:32:25.117Z,79.94
2018-11-13T15:33:25.119Z,79.94
2018-11-13T15:34:43.617Z,80.13
2018-11-13T15:35:24.719Z,80.41
2018-11-13T15:36:46.677Z,79.46
2018-11-13T15:37:25.619Z,79.65
2018-11-13T15:38:25.616Z,79.17
2018-11-13T15:39:26.144Z,79.75
2018-11-13T15:40:28.619Z,78.99
2018-11-13T15:41:26.119Z,76.88
2018-11-13T15:42:26.165Z,76.79
2018-11-13T15:43:26.617Z,76.98
2018-11-13T15:44:26.628Z,78.79
2018-11-13T15:45:50.786Z,78.85
2018-11-13T15:46:26.628Z,77.51
2018-11-13T15:47:26.619Z,77.23
2018-11-13T15:48:26.212Z,77.51
2018-11-13T15:49:27.122Z,77.61
2018-11-13T15:50:27.128Z,79.14
2018-11-13T15:51:30.668Z,77.61
2018-11-13T15:52:28.645Z,77.13
2018-11-13T15:53:27.619Z,78.18
2018-11-13T15:54:26.839Z,78.09
2018-11-13T15:55:27.619Z,78.28
2018-11-13T15:56:31.621Z,77.89
2018-11-13T15:57:51.053Z,77.89
2018-11-13T15:58:49.139Z,78.94
2018-11-13T15:59:30.120Z,79.33
2018-11-13T16:00:49.184Z,77.70
2018-11-13T16:01:34.618Z,78.75
2018-11-13T16:02:31.619Z,79.71
2018-11-13T16:03:27.975Z,80.19
2018-11-13T16:04:28.618Z,79.80
2018-11-13T16:05:29.129Z,79.71
2018-11-13T16:06:30.625Z,79.33
2018-11-13T16:07:32.620Z,80.47
2018-11-13T16:08:28.591Z,80.57
2018-11-13T16:11:21.818Z,82.09
2018-11-13T16:12:00.839Z,80.09
2018-11-13T16:13:04.327Z,80.85
2018-11-13T16:14:21.402Z,80.19
2018-11-13T16:15:01.382Z,79.52
2018-11-13T16:16:00.541Z,80.38
2018-11-13T16:17:01.327Z,81.81
2018-11-13T16:18:28.954Z,81.24
2018-11-13T16:20:33.069Z,80.76
2018-11-13T16:21:54.142Z,80.47
2018-11-13T16:22:33.066Z,80.76
2018-11-13T16:23:37.065Z,80.72
2018-11-13T16:25:08.597Z,80.72
2018-11-13T16:25:33.567Z,81.38
2018-11-13T16:26:36.000Z,82.34
2018-11-13T16:27:33.566Z,82.24
2018-11-13T16:28:58.578Z,81.77
2018-11-13T16:31:11.455Z,81.77
2018-11-13T16:32:05.430Z,82.53
2018-11-13T16:33:05.440Z,82.34
2018-11-13T16:35:40.411Z,83.11
2018-11-13T16:36:40.462Z,82.91
2018-11-13T16:37:40.439Z,82.97
2018-11-13T16:38:41.513Z,83.58
2018-11-13T16:41:16.122Z,83.20
2018-11-13T16:42:16.183Z,84.06
2018-11-13T16:43:16.701Z,83.96
2018-11-13T16:44:16.656Z,83.20
2018-11-13T16:45:41.144Z,82.82
2018-11-13T16:46:16.626Z,82.72
2018-11-13T16:47:17.120Z,82.91
2018-11-13T16:48:17.214Z,83.20
2018-11-13T16:49:17.125Z,83.01
2018-11-13T16:50:17.145Z,83.29
2018-11-13T16:51:21.129Z,83.44
2018-11-13T16:52:17.631Z,82.78
2018-11-13T16:53:17.629Z,83.20
2018-11-13T16:54:17.671Z,83.58
2018-11-13T16:55:18.128Z,83.87
2018-11-13T16:56:18.151Z,83.06
2018-11-13T16:57:22.408Z,83.44
2018-11-13T16:58:39.135Z,82.97
2018-11-13T16:59:18.627Z,82.97
2018-11-13T17:00:39.727Z,83.54
2018-11-13T17:01:18.705Z,84.01
2018-11-13T17:02:24.642Z,83.83
2018-11-13T17:03:33.199Z,83.64
2018-11-13T17:04:40.127Z,83.73
2018-11-13T17:05:19.166Z,83.73
2018-11-13T17:06:19.182Z,84.01
2018-11-13T17:07:52.063Z,84.07
2018-11-13T17:08:40.679Z,83.21
2018-11-13T17:09:19.626Z,83.59
2018-11-13T17:10:19.629Z,84.26
2018-11-13T17:11:19.678Z,83.88
2018-11-13T17:12:41.136Z,84.07
2018-11-13T17:13:23.627Z,83.97
2018-11-13T17:14:20.262Z,83.78
2018-11-13T17:15:20.141Z,84.55
2018-11-13T17:16:20.690Z,84.07
2018-11-13T17:17:20.681Z,85.21
2018-11-13T17:18:21.605Z,85.78
2018-11-13T17:19:24.632Z,85.88
2018-11-13T17:20:21.150Z,85.78
2018-11-13T17:21:21.202Z,85.78
2018-11-13T17:22:21.131Z,85.50
2018-11-13T17:23:21.175Z,85.12
2018-11-13T17:24:24.628Z,85.31
2018-11-13T17:25:21.662Z,85.69
2018-11-13T17:26:21.627Z,85.78
2018-11-13T17:27:21.637Z,86.32
2018-11-13T17:28:43.143Z,86.69
2018-11-13T17:29:26.138Z,86.60
2018-11-13T17:30:22.157Z,86.16
2018-11-13T17:31:22.173Z,86.22
2018-11-13T17:32:22.634Z,86.32
2018-11-13T17:33:22.626Z,86.83
2018-11-13T17:34:22.628Z,86.12
2018-11-13T17:35:26.165Z,86.32
2018-11-13T17:36:23.137Z,86.22
2018-11-13T17:37:23.125Z,86.69
2018-11-13T17:38:23.134Z,86.69
2018-11-13T17:39:23.132Z,86.69
2018-11-13T17:40:28.587Z,86.32
2018-11-13T17:41:23.627Z,86.51
2018-11-13T17:42:22.986Z,86.79
2018-11-13T17:43:23.635Z,86.69
2018-11-13T17:44:24.126Z,86.12
2018-11-13T17:45:51.560Z,86.22
2018-11-13T17:46:24.126Z,86.51
2018-11-13T17:47:24.133Z,86.88
2018-11-13T17:48:24.638Z,87.17
2018-11-13T17:49:25.580Z,86.79
2018-11-13T17:50:24.662Z,86.94
2018-11-13T17:51:49.624Z,87.13
2018-11-13T17:52:25.137Z,86.75
2018-11-13T17:53:25.152Z,87.23
2018-11-13T17:54:25.147Z,87.03
2018-11-13T17:55:25.126Z,86.84
2018-11-13T17:56:25.625Z,86.84
2018-11-13T17:59:00.852Z,85.70
2018-11-13T18:00:00.862Z,86.18
2018-11-13T18:01:00.874Z,86.75
2018-11-13T18:02:01.348Z,86.08
2018-11-13T18:03:26.348Z,86.18
2018-11-13T18:04:01.348Z,86.18
2018-11-13T18:05:22.350Z,86.94
2018-11-13T18:06:22.848Z,86.75
2018-11-13T18:07:01.866Z,86.75
2018-11-13T18:08:01.848Z,86.94
2018-11-13T18:09:30.286Z,86.94
2018-11-13T18:10:02.364Z,86.08
2018-11-13T18:11:02.348Z,86.27
2018-11-13T18:12:02.352Z,86.08
2018-11-13T18:13:02.364Z,86.42
2018-11-13T18:14:27.354Z,86.42
2018-11-13T18:15:02.863Z,86.13
2018-11-13T18:16:02.910Z,86.61
2018-11-13T18:17:02.856Z,86.42
2018-11-13T18:18:24.348Z,86.22
2018-11-13T18:19:04.792Z,86.22
2018-11-13T18:23:31.172Z,87.08
2018-11-13T18:24:10.107Z,87.18
2018-11-13T18:25:34.647Z,87.27
2018-11-13T18:26:31.606Z,87.04
2018-11-13T18:27:14.540Z,87.71
2018-11-13T18:28:12.779Z,88.51
2018-11-13T18:29:10.615Z,88.37
2018-11-13T18:30:14.605Z,88.85
2018-11-13T18:31:13.542Z,88.89
2018-11-13T18:32:11.170Z,88.32
2018-11-13T18:33:15.040Z,88.60
2018-11-13T18:34:12.540Z,88.46
2018-11-13T18:35:15.106Z,88.37
2018-11-13T18:36:11.606Z,88.18
2018-11-13T18:37:11.608Z,88.09
2018-11-13T18:38:11.283Z,87.52
2018-11-13T18:39:12.300Z,87.71
2018-11-13T18:40:16.105Z,87.94
2018-11-13T18:41:12.117Z,87.85
2018-11-13T18:42:33.609Z,87.80
2018-11-13T18:43:33.607Z,87.42
2018-11-13T18:44:33.659Z,86.66
2018-11-13T18:45:12.707Z,86.66
2018-11-13T18:46:16.121Z,86.76
2018-11-13T18:47:34.106Z,87.23
2018-11-13T18:48:13.106Z,87.23
2018-11-13T18:49:13.106Z,87.23
2018-11-13T18:50:14.568Z,87.42
2018-11-13T18:51:17.217Z,87.23
2018-11-13T18:52:13.605Z,87.52
2018-11-13T18:53:13.621Z,87.71
2018-11-13T18:54:36.541Z,87.52
2018-11-13T18:55:35.109Z,87.90
2018-11-13T18:56:14.106Z,87.90
2018-11-13T18:57:18.111Z,87.42
2018-11-13T18:58:14.607Z,87.71
2018-11-13T18:59:14.674Z,87.80
2018-11-13T19:00:14.602Z,88.18
2018-11-13T19:01:14.605Z,88.46
2018-11-13T19:02:15.166Z,88.85
2018-11-13T19:03:17.465Z,88.85
2018-11-13T19:04:15.105Z,88.85
2018-11-13T19:05:15.306Z,89.04
2018-11-13T19:06:16.078Z,88.75
2018-11-13T19:07:15.604Z,89.32
2018-11-13T19:08:21.604Z,88.37
2018-11-13T19:09:15.604Z,88.28
2018-11-13T19:10:17.038Z,88.37
2018-11-13T19:11:16.200Z,87.80
2018-11-13T19:12:16.122Z,87.04
2018-11-13T19:13:16.109Z,87.32
2018-11-13T19:16:11.777Z,86.47
2018-11-13T19:17:11.798Z,87.04
2018-11-13T19:18:11.839Z,87.32
2018-11-13T19:20:28.982Z,86.71
2018-11-13T19:21:23.032Z,86.80
2018-11-13T19:22:23.032Z,86.90
2018-11-13T19:23:23.532Z,86.99
2018-11-13T19:24:23.566Z,86.71
2018-11-13T19:25:27.552Z,86.71
2018-11-13T19:26:23.533Z,87.28
2018-11-13T19:27:24.032Z,88.04
2018-11-13T19:28:24.031Z,87.95
2018-11-13T19:31:20.539Z,88.52
2018-11-13T19:31:55.523Z,88.61
2018-11-13T19:32:55.522Z,88.13
2018-11-13T19:34:17.022Z,88.33
2018-11-13T19:35:19.151Z,88.80
2018-11-13T19:35:57.508Z,87.47
2018-11-13T19:40:02.204Z,87.95
2018-11-13T19:41:02.143Z,88.80
2018-11-13T19:42:05.643Z,88.80
2018-11-13T19:43:03.650Z,89.23
2018-11-13T19:44:01.852Z,89.42
2018-11-13T19:45:04.681Z,89.42
2018-11-13T19:46:02.649Z,89.42
2018-11-13T19:47:06.658Z,89.14
2018-11-13T19:48:03.150Z,89.52
2018-11-13T19:49:24.453Z,88.95
2018-11-13T19:50:03.145Z,89.33
2018-11-13T19:51:03.148Z,89.23
2018-11-13T19:52:08.080Z,89.04
2018-11-13T19:53:26.664Z,89.23
2018-11-13T19:54:24.646Z,89.80
2018-11-13T19:55:24.641Z,90.19
2018-11-13T19:57:59.402Z,90.37
2018-11-13T19:58:35.377Z,90.37
2018-11-13T19:59:35.399Z,90.37
2018-11-13T20:00:35.886Z,90.09
2018-11-13T20:01:35.888Z,90.37
2018-11-13T20:02:39.884Z,90.75
2018-11-13T20:03:35.349Z,90.47
2018-11-13T20:04:37.844Z,90.47
2018-11-13T20:05:36.423Z,90.09
2018-11-13T20:06:36.377Z,90.09
2018-11-13T20:08:01.385Z,89.90
2018-11-13T20:08:36.877Z,90.47
2018-11-13T20:09:36.877Z,90.75
2018-11-13T20:10:36.877Z,89.80
2018-11-13T20:11:57.895Z,89.33
2018-11-13T20:12:37.379Z,89.14
2018-11-13T20:15:33.760Z,89.33
2018-11-13T20:16:12.768Z,89.04
2018-11-13T20:18:47.506Z,89.04
2018-11-13T20:19:44.496Z,88.76
2018-11-13T20:20:44.496Z,88.95
2018-11-13T20:23:18.229Z,89.33
2018-11-13T20:25:51.649Z,89.80
2018-11-13T20:26:53.067Z,89.80
2018-11-13T20:29:26.353Z,89.71
2018-11-13T20:30:23.362Z,89.61
2018-11-13T20:31:23.455Z,89.33
2018-11-13T20:32:23.884Z,89.04
2018-11-13T20:33:23.865Z,88.47
2018-11-13T20:34:27.870Z,88.38
2018-11-13T20:35:23.879Z,88.28
2018-11-13T20:36:45.362Z,87.24
2018-11-13T20:37:47.458Z,87.52
2018-11-13T20:38:24.383Z,87.52
2018-11-13T20:39:27.862Z,87.24
2018-11-13T20:40:45.861Z,88.19
2018-11-13T20:41:24.861Z,87.81
2018-11-13T20:42:24.861Z,87.34
2018-11-13T20:43:24.940Z,87.05
2018-11-13T20:44:28.916Z,86.95
2018-11-13T20:45:25.358Z,87.05
2018-11-13T20:47:56.835Z,87.62
2018-11-13T20:48:56.844Z,87.34
2018-11-13T20:51:32.140Z,87.14
2018-11-13T20:52:32.036Z,86.86
2018-11-13T20:53:32.035Z,86.86
2018-11-13T20:56:07.783Z,87.90
2018-11-13T20:57:03.773Z,88.34
2018-11-13T20:58:03.788Z,88.24
2018-11-13T20:59:05.742Z,88.15
2018-11-13T21:01:39.137Z,89.28
2018-11-13T21:02:35.689Z,88.90
2018-11-13T21:03:35.596Z,89.19
2018-11-13T21:04:36.110Z,88.15
2018-11-13T21:05:36.095Z,87.76
2018-11-13T21:06:36.099Z,87.19
2018-11-13T21:07:40.129Z,86.72
2018-11-13T21:10:28.874Z,87.01
2018-11-13T21:11:07.896Z,87.01
2018-11-13T21:12:29.326Z,87.38
2018-11-13T21:13:13.261Z,88.15
2018-11-13T21:14:08.326Z,88.34
2018-11-13T21:15:08.382Z,88.15
2018-11-13T21:16:08.898Z,88.24
2018-11-13T21:17:08.991Z,88.15
2018-11-13T21:18:08.832Z,88.90
2018-11-13T21:19:33.828Z,88.53
2018-11-13T21:20:09.327Z,89.19
2018-11-13T21:21:09.326Z,89.09
2018-11-13T21:22:09.327Z,89.00
2018-11-13T21:23:09.342Z,89.00
2018-11-13T21:24:10.295Z,89.00
2018-11-13T21:25:36.759Z,89.19
2018-11-13T21:26:10.782Z,89.38
2018-11-13T21:27:09.871Z,89.19
2018-11-13T21:28:09.827Z,88.90
2018-11-13T21:29:31.329Z,89.00
2018-11-13T21:30:13.913Z,88.34
2018-11-13T21:31:10.325Z,88.15
2018-11-13T21:32:10.325Z,88.34
2018-11-13T21:33:10.329Z,88.34
2018-11-13T21:35:45.571Z,88.34
2018-11-13T21:36:42.080Z,88.05
2018-11-13T21:37:42.157Z,88.43
2018-11-13T21:38:42.559Z,88.71
2018-11-13T21:40:03.556Z,88.57
2018-11-13T21:40:42.557Z,88.86
2018-11-13T21:42:07.562Z,88.67
2018-11-13T21:43:04.090Z,88.95
2018-11-13T21:43:43.143Z,88.57
2018-11-13T21:44:43.057Z,89.05
2018-11-13T21:45:43.057Z,89.14
2018-11-13T21:48:18.287Z,89.43
2018-11-13T21:49:18.285Z,89.05
2018-11-13T21:51:54.004Z,88.76
2018-11-13T21:53:11.511Z,88.76
2018-11-13T21:53:50.511Z,88.95
2018-11-13T21:54:50.521Z,88.95
2018-11-13T21:56:18.016Z,88.86
2018-11-13T21:57:15.518Z,89.14
2018-11-13T21:59:22.497Z,88.95
2018-11-13T22:00:43.515Z,89.14
2018-11-13T22:01:22.534Z,89.24
2018-11-13T22:02:26.011Z,88.95
2018-11-13T22:03:23.010Z,88.67
2018-11-13T22:04:23.008Z,89.24
2018-11-13T22:05:23.007Z,89.33
2018-11-13T22:06:23.505Z,89.05
2018-11-13T22:07:27.004Z,88.95
2018-11-13T22:08:23.539Z,88.95
2018-11-13T22:09:23.507Z,88.86
2018-11-13T22:10:24.011Z,89.53
2018-11-13T22:11:24.012Z,89.43
2018-11-13T22:12:24.003Z,89.62
2018-11-13T22:13:28.006Z,89.14
2018-11-13T22:14:24.503Z,88.76
2018-11-13T22:15:24.504Z,88.86
2018-11-13T22:16:24.526Z,88.48
2018-11-13T22:17:24.513Z,88.29
2018-11-13T22:18:55.503Z,87.72
2018-11-13T22:19:25.007Z,87.72
2018-11-13T22:20:25.007Z,88.01
2018-11-13T22:21:25.007Z,88.67
2018-11-13T22:22:25.516Z,88.86
2018-11-13T22:23:46.503Z,89.43
2018-11-13T22:26:21.766Z,89.53
2018-11-13T22:27:21.847Z,88.76
2018-11-13T22:28:00.805Z,88.29
2018-11-13T22:29:23.251Z,88.67
2018-11-13T22:36:14.373Z,90.09
2018-11-13T22:37:10.824Z,89.90
2018-11-13T22:38:10.819Z,90.00
2018-11-13T22:39:32.318Z,90.19
2018-11-13T22:40:11.319Z,89.72
2018-11-13T22:42:46.756Z,88.86
2018-11-13T22:43:46.755Z,88.39
2018-11-13T22:44:47.257Z,89.24
2018-11-13T22:45:47.257Z,88.01
2018-11-13T22:48:22.439Z,88.29
2018-11-13T22:49:22.431Z,88.67
2018-11-13T22:50:22.430Z,88.39
2018-11-13T22:51:22.930Z,88.39
2018-11-13T22:52:26.930Z,88.01
2018-11-13T22:53:22.931Z,88.29
2018-11-13T22:54:22.928Z,88.10
2018-11-13T22:55:23.432Z,88.86
2018-11-13T22:56:23.429Z,88.29
2018-11-13T22:57:23.486Z,88.86
2018-11-13T22:58:48.429Z,89.05
2018-11-13T22:59:23.930Z,88.86
2018-11-13T23:00:23.932Z,89.24
2018-11-13T23:01:23.929Z,89.14
2018-11-13T23:02:23.967Z,88.29
2018-11-13T23:03:27.930Z,88.20
2018-11-13T23:04:24.438Z,87.72
2018-11-13T23:05:24.430Z,87.91
2018-11-13T23:06:24.428Z,88.20
2018-11-13T23:07:24.927Z,88.01
2018-11-13T23:08:24.935Z,88.48
2018-11-13T23:09:30.385Z,88.20
2018-11-13T23:10:24.929Z,88.29
2018-11-13T23:11:24.929Z,88.20
2018-11-13T23:12:25.429Z,88.01
2018-11-13T23:13:25.425Z,88.20
2018-11-13T23:14:25.429Z,87.34
2018-11-13T23:17:21.348Z,87.53
2018-11-13T23:19:31.825Z,87.53
2018-11-13T23:20:56.331Z,87.62
2018-11-13T23:21:31.830Z,87.53
2018-11-13T23:22:34.330Z,87.34
2018-11-13T23:23:32.331Z,87.05
2018-11-13T23:24:32.331Z,87.34
2018-11-13T23:27:07.872Z,88.43
2018-11-13T23:28:28.917Z,88.06
2018-11-13T23:29:07.880Z,88.10
2018-11-13T23:30:07.931Z,87.43
2018-11-13T23:32:43.543Z,87.34
2018-11-13T23:33:43.550Z,87.01
2018-11-13T23:35:05.008Z,87.11
2018-11-13T23:37:19.297Z,87.58
2018-11-13T23:38:15.304Z,87.49
2018-11-13T23:39:15.299Z,88.15
2018-11-13T23:40:15.800Z,88.06
2018-11-13T23:42:49.646Z,87.20
2018-11-13T23:43:47.149Z,87.30
2018-11-13T23:44:47.151Z,86.91
2018-11-13T23:47:41.332Z,87.39
2018-11-13T23:48:22.377Z,87.49
2018-11-13T23:49:18.876Z,87.30
2018-11-13T23:50:19.375Z,87.49
2018-11-13T23:51:20.810Z,88.34
2018-11-13T23:52:19.375Z,88.91
2018-11-13T23:53:22.309Z,88.81